Observations for STANSTED AIRPORT, United Kingdom (EGSS)

EGSS 221450Z AUTO 35008KT 310V020 9999 NCD 12/03 Q1037  
EGSS 221420Z AUTO 32008KT 290V010 9999 NCD 12/04 Q1037  
EGSS 221350Z AUTO 34008KT 310V020 9999 NCD 12/04 Q1037  
EGSS 221320Z AUTO 34008KT 310V010 9999 NCD 12/04 Q1037  
EGSS 221250Z AUTO 33008KT 300V010 9999 NCD 12/04 Q1037  
EGSS 221220Z AUTO 36008KT 310V030 9999 NCD 11/04 Q1037  
EGSS 221150Z AUTO 36008KT 9999 NCD 11/04 Q1037  
EGSS 221120Z AUTO 36011KT 9999 NCD 11/04 Q1037  
EGSS 221050Z AUTO 35010KT 310V030 9999 NCD 11/05 Q1037  
EGSS 221020Z AUTO 36008KT 320V030 9999 NCD 10/04 Q1037  
EGSS 220950Z AUTO 36009KT 9999 NCD 09/04 Q1037  
EGSS 220920Z AUTO 36007KT 9999 NCD 09/04 Q1037  
EGSS 220850Z AUTO 35008KT 310V020 9999 NCD 08/04 Q1037  
EGSS 220820Z AUTO 35007KT 320V030 9999 NCD 07/03 Q1037  
EGSS 220750Z AUTO 35004KT 9999 NCD 06/03 Q1036  
EGSS 220720Z AUTO 34003KT 9999 NCD 05/03 Q1036  
EGSS 220650Z AUTO VRB03KT 9999 NCD 04/03 Q1035  
EGSS 220620Z AUTO 34004KT 9999 NCD 04/03 Q1035  
EGSS 220550Z AUTO 34005KT 9999 NCD 05/03 Q1034  
EGSS 220520Z AUTO 34005KT 9999 NCD 05/03 Q1034  
EGSS 220450Z AUTO 34008KT 9999 NCD 06/04 Q1034  
EGSS 220420Z AUTO 34008KT 9999 NCD 06/04 Q1034  
EGSS 220350Z AUTO 34006KT 9999 NCD 07/03 Q1033  
EGSS 220320Z AUTO 35007KT 320V020 9999 NCD 07/03 Q1033  
EGSS 220250Z AUTO 35008KT 9999 NCD 07/04 Q1033  
EGSS 220220Z AUTO 34009KT 310V010 9999 NCD 08/05 Q1033  
EGSS 220150Z AUTO 35011KT 9999 SCT034 09/05 Q1032   
EGSS 220120Z AUTO 35011KT 9999 BKN035 11/07 Q1032   
EGSS 220050Z AUTO 36011KT 9999 OVC030 11/07 Q1032   
EGSS 220020Z AUTO 35010KT 9999 OVC028 12/07 Q1031   
EGSS 212350Z AUTO 35010KT 9999 OVC028 12/08 Q1031   
EGSS 212320Z AUTO 35010KT 9999 OVC028 12/09 Q1030   
EGSS 212250Z AUTO 35010KT 9999 -RA BKN023 OVC049 12/10 Q1030
EGSS 212220Z AUTO 34010KT 9999 BKN014 OVC019 12/10 Q1030
EGSS 212150Z AUTO 33011KT 9999 BKN014 OVC045 13/10 Q1029
EGSS 212120Z 34010KT 5000 -DZ SCT006 BKN011 OVC018 13/12 Q1029 REDZ 
EGSS 212050Z 34008KT 4000 -DZ HZ BKN006 OVC018 14/13 Q1029 REDZ 
EGSS 212020Z AUTO 33009KT 9999 SCT008 OVC020 14/13 Q1028
EGSS 211950Z AUTO 32008KT 9999 OVC023 15/12 Q1028   
EGSS 211920Z AUTO 32005KT 9999 OVC024 15/12 Q1028   
EGSS 211850Z AUTO 30003KT 9999 OVC024 15/11 Q1027   
EGSS 211820Z AUTO 30003KT 9999 OVC025 15/11 Q1027   
EGSS 211750Z AUTO 30003KT 9999 SCT029 BKN041 14/11 Q1027
EGSS 211720Z AUTO 30003KT 9999 SCT035 BKN049 15/11 Q1027
EGSS 211650Z AUTO 28003KT 9999 NCD 15/11 Q1026  
EGSS 211620Z AUTO 30005KT 9999 NCD 16/10 Q1026  
EGSS 211550Z AUTO 30006KT 260V330 9999 NCD 17/09 Q1026  
EGSS 211520Z AUTO 27005KT 9999 NCD 18/10 Q1026  
EGSS 211450Z AUTO 26005KT 9999 NCD 18/10 Q1026  
EGSS 211420Z AUTO 25007KT 9999 NCD 18/09 Q1026